Time;durP1;ratioP1;P1;durP2;ratioP2;P2;SDS_P1;SDS_P2;PMS_P1;PMS_P2;Temp;Humidity;BMP_temperature;BMP_pressure;BME280_temperature;BME280_humidity;BME280_pressure;Samples;Min_cycle;Max_cycle;Signal;HPM_P1;HPM_P2
2023/12/05 00:01:39;;;;;;;78.90;74.97;;;7.00;84.70;;;;;;12609498;28;20028;-74
2023/12/05 00:07:43;;;;;;;55.85;53.05;;;7.00;84.40;;;;;;12609192;28;20328;-73
2023/12/05 00:13:44;;;;;;;78.63;74.30;;;6.90;84.50;;;;;;12591735;28;20059;-72
2023/12/05 00:19:46;;;;;;;75.20;71.82;;;6.90;84.30;;;;;;12609948;28;20028;-73
2023/12/05 00:25:47;;;;;;;65.18;61.90;;;6.80;84.80;;;;;;12608295;28;20029;-73
2023/12/05 00:31:49;;;;;;;59.30;55.65;;;6.70;85.10;;;;;;12607962;28;20035;-72
2023/12/05 00:37:50;;;;;;;93.85;89.15;;;6.80;85.20;;;;;;12607755;28;20382;-73
2023/12/05 00:43:52;;;;;;;73.13;69.50;;;6.60;85.10;;;;;;12573172;28;20033;-73
2023/12/05 00:49:54;;;;;;;58.28;55.25;;;6.70;85.10;;;;;;12589289;28;20502;-73
2023/12/05 00:56:02;;;;;;;54.15;50.92;;;6.60;84.80;;;;;;12606673;28;20032;-73
2023/12/05 01:02:07;;;;;;;65.32;61.75;;;6.60;85.00;;;;;;12589039;28;20477;-72
2023/12/05 01:08:08;;;;;;;76.43;72.65;;;6.70;84.90;;;;;;12606250;28;20036;-72
2023/12/05 01:14:10;;;;;;;54.45;51.50;;;6.60;84.50;;;;;;12605944;28;20028;-73
2023/12/05 01:20:11;;;;;;;58.50;55.45;;;6.50;85.10;;;;;;12605710;28;20024;-73
2023/12/05 01:26:13;;;;;;;57.78;54.75;;;6.60;84.80;;;;;;12571827;28;20359;-73
2023/12/05 01:32:15;;;;;;;63.17;60.03;;;6.70;84.90;;;;;;12587294;28;20055;-73
2023/12/05 01:38:18;;;;;;;57.28;54.03;;;6.60;84.70;;;;;;12605456;28;20028;-73
2023/12/05 01:44:20;;;;;;;68.15;64.88;;;6.60;84.80;;;;;;12604600;28;20032;-73
2023/12/05 01:50:28;;;;;;;61.42;58.42;;;6.50;84.50;;;;;;12586978;28;20033;-73
2023/12/05 01:56:30;;;;;;;60.47;57.60;;;6.50;84.70;;;;;;12586376;28;20032;-73
2023/12/05 02:02:32;;;;;;;78.47;74.80;;;6.40;84.80;;;;;;12586232;28;20028;-73
2023/12/05 02:08:34;;;;;;;63.83;60.65;;;6.30;85.00;;;;;;12604488;28;20036;-76
2023/12/05 02:14:35;;;;;;;56.65;53.80;;;6.30;84.90;;;;;;12585055;28;20445;-76
2023/12/05 02:20:43;;;;;;;68.88;65.43;;;6.20;84.70;;;;;;12585908;28;20443;-75
2023/12/05 02:26:59;;;;;;;50.72;48.08;;;6.20;85.10;;;;;;12603533;28;20036;-75
2023/12/05 02:33:01;;;;;;;67.63;64.25;;;6.10;85.40;;;;;;12586121;28;20035;-76
2023/12/05 02:39:24;;;;;;;66.53;63.05;;;6.10;85.60;;;;;;12603216;28;20351;-76
2023/12/05 02:45:30;;;;;;;58.33;55.38;;;6.00;85.80;;;;;;12585150;28;20036;-76
2023/12/05 02:51:31;;;;;;;42.22;39.67;;;6.20;85.90;;;;;;12602807;28;20059;-76
2023/12/05 02:57:33;;;;;;;56.08;53.15;;;6.20;85.90;;;;;;12603427;28;20032;-76
2023/12/05 03:03:34;;;;;;;53.88;50.92;;;6.20;85.80;;;;;;12602677;28;20036;-75
2023/12/05 03:09:36;;;;;;;65.43;61.92;;;6.20;85.80;;;;;;12602512;28;20040;-75
2023/12/05 03:15:37;;;;;;;68.55;65.00;;;6.20;86.00;;;;;;12584681;28;20359;-75
2023/12/05 03:21:39;;;;;;;70.75;67.05;;;6.20;85.90;;;;;;12568395;28;20041;-75
2023/12/05 03:27:40;;;;;;;69.30;65.70;;;6.20;85.60;;;;;;12611799;28;20342;-75
2023/12/05 03:33:42;;;;;;;74.88;71.25;;;6.20;85.80;;;;;;12592771;28;20442;-75
2023/12/05 03:39:44;;;;;;;50.90;48.10;;;6.30;85.70;;;;;;12610574;28;20028;-75
2023/12/05 03:45:46;;;;;;;53.15;50.05;;;6.30;85.80;;;;;;12610328;28;20443;-75
2023/12/05 03:51:47;;;;;;;48.42;45.95;;;6.30;85.70;;;;;;12592546;28;20037;-75
2023/12/05 03:57:49;;;;;;;62.17;59.05;;;6.20;85.70;;;;;;12609755;28;20320;-75
2023/12/05 04:03:50;;;;;;;73.18;69.38;;;6.20;86.00;;;;;;12591685;28;20032;-75
2023/12/05 04:09:52;;;;;;;59.70;56.72;;;6.20;85.90;;;;;;12591318;28;20056;-75
2023/12/05 04:15:53;;;;;;;58.22;55.33;;;6.20;85.50;;;;;;12608754;28;20039;-75
2023/12/05 04:21:55;;;;;;;66.18;62.90;;;6.20;85.40;;;;;;12574385;28;20098;-75
2023/12/05 04:27:57;;;;;;;58.38;55.17;;;6.20;85.20;;;;;;12590507;28;20032;-75
2023/12/05 04:33:58;;;;;;;69.13;65.80;;;6.30;85.10;;;;;;12589266;28;20040;-75
2023/12/05 04:40:00;;;;;;;71.38;67.72;;;6.40;85.30;;;;;;12607780;28;20342;-72
2023/12/05 04:46:01;;;;;;;64.22;61.05;;;6.50;85.20;;;;;;12607509;28;20033;-72
2023/12/05 04:52:03;;;;;;;54.85;52.30;;;6.40;84.90;;;;;;12607584;28;20040;-73
2023/12/05 04:58:05;;;;;;;55.55;52.53;;;6.50;85.10;;;;;;12606811;28;20028;-73
2023/12/05 05:04:07;;;;;;;108.47;103.38;;;6.70;85.00;;;;;;12607381;28;20426;-73
2023/12/05 05:10:09;;;;;;;60.67;57.53;;;6.70;84.80;;;;;;12606271;28;20032;-73
2023/12/05 05:16:11;;;;;;;63.53;60.05;;;6.80;84.50;;;;;;12588174;28;20358;-72
2023/12/05 05:22:12;;;;;;;84.65;80.80;;;6.80;84.50;;;;;;12605707;28;20039;-72
2023/12/05 05:28:14;;;;;;;123.10;117.72;;;6.90;84.40;;;;;;12605433;28;20032;-72
2023/12/05 05:34:15;;;;;;;69.28;65.82;;;6.80;84.30;;;;;;12605074;28;20092;-72
2023/12/05 05:40:18;;;;;;;81.95;78.28;;;6.80;84.30;;;;;;12587079;28;20023;-72
2023/12/05 05:46:20;;;;;;;76.28;72.65;;;7.00;84.30;;;;;;12604558;28;20028;-72
2023/12/05 05:52:22;;;;;;;59.75;56.33;;;7.10;83.90;;;;;;12587330;28;20041;-72
2023/12/05 05:58:24;;;;;;;76.00;72.40;;;7.10;83.70;;;;;;12586496;28;20036;-72
2023/12/05 06:04:26;;;;;;;48.00;45.63;;;7.20;83.70;;;;;;12586213;28;20049;-72
2023/12/05 06:10:28;;;;;;;85.95;82.20;;;7.20;83.40;;;;;;12603584;28;20040;-72
2023/12/05 06:16:29;;;;;;;44.80;42.03;;;7.20;83.40;;;;;;12585868;28;20035;-72
2023/12/05 06:22:33;;;;;;;108.65;103.65;;;7.20;83.40;;;;;;12587349;28;20102;-72
2023/12/05 06:28:34;;;;;;;70.28;66.60;;;7.30;83.20;;;;;;12603437;28;20028;-72
2023/12/05 06:34:36;;;;;;;60.03;56.95;;;7.40;82.90;;;;;;12602936;28;20071;-72
2023/12/05 06:40:55;;;;;;;81.43;77.85;;;7.40;82.80;;;;;;12603255;28;20024;-72
2023/12/05 06:46:56;;;;;;;101.97;97.72;;;7.20;82.80;;;;;;12602500;28;20037;-72
2023/12/05 06:52:59;;;;;;;107.25;102.65;;;6.80;83.40;;;;;;12577758;22;20045;-72
2023/12/05 06:59:03;;;;;;;100.60;96.40;;;7.00;83.70;;;;;;12557549;28;20447;-72
2023/12/05 07:05:07;;;;;;;83.20;79.40;;;7.30;83.50;;;;;;12562355;28;20451;-72
2023/12/05 07:11:09;;;;;;;66.00;62.95;;;7.30;83.20;;;;;;12561774;28;20033;-72
2023/12/05 07:17:33;;;;;;;109.85;105.00;;;7.30;82.80;;;;;;12561767;28;20033;-72
2023/12/05 07:23:36;;;;;;;118.55;113.78;;;6.80;83.20;;;;;;12550381;28;20467;-72
2023/12/05 07:29:38;;;;;;;66.82;63.50;;;7.00;83.60;;;;;;12558670;28;20033;-72
2023/12/05 07:35:40;;;;;;;125.13;119.55;;;7.10;83.40;;;;;;12560966;28;20036;-72
2023/12/05 07:41:41;;;;;;;112.60;107.68;;;7.00;83.50;;;;;;12560765;28;20032;-72
2023/12/05 07:47:46;;;;;;;115.47;110.55;;;7.30;83.70;;;;;;12560519;28;20033;-72
2023/12/05 07:53:50;;;;;;;110.60;105.50;;;7.30;83.00;;;;;;12560103;28;20029;-72
2023/12/05 07:59:52;;;;;;;132.93;126.93;;;7.10;83.60;;;;;;12559887;28;20313;-72
2023/12/05 08:05:54;;;;;;;138.50;132.70;;;7.20;83.70;;;;;;12559679;28;20036;-72
2023/12/05 08:11:56;;;;;;;108.10;103.55;;;7.20;83.20;;;;;;12557936;28;20029;-72
2023/12/05 08:17:57;;;;;;;111.30;106.28;;;6.80;83.50;;;;;;12558712;28;20029;-72
2023/12/05 08:23:59;;;;;;;72.75;68.85;;;6.80;84.20;;;;;;12558909;28;20033;-72
2023/12/05 08:30:02;;;;;;;100.80;96.00;;;6.80;83.80;;;;;;12524240;28;20033;-72
2023/12/05 08:36:04;;;;;;;122.57;117.30;;;6.80;84.50;;;;;;12508732;28;20431;-72
2023/12/05 08:42:06;;;;;;;94.10;90.03;;;7.10;83.90;;;;;;12524383;28;20040;-72
2023/12/05 08:48:07;;;;;;;114.65;109.43;;;6.70;83.80;;;;;;12508260;28;20347;-72
2023/12/05 08:54:09;;;;;;;73.53;69.75;;;6.50;84.50;;;;;;12507776;28;20040;-72
2023/12/05 09:00:11;;;;;;;77.68;73.80;;;6.40;84.80;;;;;;12507682;28;20040;-72
2023/12/05 09:06:13;;;;;;;101.22;96.55;;;6.50;84.70;;;;;;12507368;28;20448;-72
2023/12/05 09:12:15;;;;;;;102.35;97.28;;;6.50;84.90;;;;;;12506458;28;20467;-72
2023/12/05 09:18:17;;;;;;;67.88;64.07;;;6.60;84.50;;;;;;12506765;28;20029;-72
2023/12/05 09:24:18;;;;;;;86.25;81.32;;;6.40;84.80;;;;;;12504958;28;20029;-72
2023/12/05 09:30:20;;;;;;;59.45;56.08;;;6.20;84.70;;;;;;12506214;28;20033;-72
2023/12/05 09:36:22;;;;;;;82.03;77.45;;;6.20;85.10;;;;;;12505935;28;20045;-72
2023/12/05 09:42:25;;;;;;;82.95;78.20;;;6.50;85.60;;;;;;12540559;28;20036;-72
2023/12/05 09:48:47;;;;;;;96.68;92.10;;;6.60;85.30;;;;;;12555077;28;20036;-72
2023/12/05 09:54:50;;;;;;;86.88;82.25;;;6.70;85.20;;;;;;12553327;28;20036;-72
2023/12/05 10:00:53;;;;;;;86.10;81.78;;;6.70;85.10;;;;;;12554247;28;20451;-72
2023/12/05 10:06:56;;;;;;;76.18;72.03;;;6.70;85.40;;;;;;12554092;28;20029;-72
2023/12/05 10:13:01;;;;;;;135.98;129.77;;;6.90;85.30;;;;;;12553763;28;20363;-72
2023/12/05 10:19:04;;;;;;;118.20;112.65;;;7.20;85.30;;;;;;12553657;28;20024;-72
2023/12/05 10:25:10;;;;;;;156.00;148.75;;;7.10;84.80;;;;;;12553916;28;20028;-72
2023/12/05 10:31:15;;;;;;;104.78;99.68;;;6.70;84.90;;;;;;12553770;28;20435;-72
2023/12/05 10:37:28;;;;;;;108.20;102.57;;;6.60;85.50;;;;;;12552908;28;20029;-72
2023/12/05 10:43:30;;;;;;;90.00;85.57;;;6.60;85.60;;;;;;12563663;28;20033;-71
2023/12/05 10:49:34;;;;;;;79.97;75.95;;;6.50;85.20;;;;;;12563285;28;20355;-72
2023/12/05 10:55:36;;;;;;;113.53;107.95;;;6.30;85.30;;;;;;12561844;28;20048;-72
2023/12/05 11:01:37;;;;;;;75.22;71.47;;;6.40;85.60;;;;;;12563542;28;20032;-72
2023/12/05 11:07:39;;;;;;;103.32;97.63;;;6.60;85.80;;;;;;12562569;28;20037;-72
2023/12/05 11:13:42;;;;;;;72.93;68.95;;;6.70;85.30;;;;;;12562858;28;20029;-72
2023/12/05 11:20:01;;;;;;;82.47;78.07;;;6.50;85.30;;;;;;12561541;28;20025;-72
2023/12/05 11:26:26;;;;;;;88.70;83.97;;;6.30;85.20;;;;;;12560715;28;20045;-72
2023/12/05 11:32:54;;;;;;;85.65;80.55;;;6.20;85.60;;;;;;12561999;28;20028;-72
2023/12/05 11:38:56;;;;;;;87.57;81.78;;;6.20;85.50;;;;;;12557698;28;20044;-72
2023/12/05 11:45:35;;;;;;;77.60;72.47;;;6.20;85.40;;;;;;12560406;28;20365;-72
2023/12/05 11:52:10;;;;;;;64.55;60.35;;;6.10;85.30;;;;;;12560369;28;20037;-72
2023/12/05 11:58:32;;;;;;;88.88;83.68;;;6.10;85.70;;;;;;12560739;28;20037;-72
2023/12/05 12:04:34;;;;;;;86.78;80.85;;;6.20;85.70;;;;;;12559935;28;20123;-72
2023/12/05 12:10:37;;;;;;;82.10;76.65;;;6.20;85.60;;;;;;12559651;28;20036;-72
2023/12/05 12:16:38;;;;;;;99.00;93.13;;;6.10;85.40;;;;;;12559316;28;20041;-72
2023/12/05 12:22:43;;;;;;;90.18;83.93;;;6.20;85.90;;;;;;12559776;28;20040;-72
2023/12/05 12:28:49;;;;;;;96.80;90.78;;;6.10;85.50;;;;;;12558808;28;20025;-72
2023/12/05 12:34:51;;;;;;;83.35;78.93;;;6.20;85.60;;;;;;12558123;28;20445;-72
2023/12/05 12:41:09;;;;;;;78.63;74.68;;;6.30;85.60;;;;;;12557250;28;20044;-72
2023/12/05 12:47:13;;;;;;;91.93;87.43;;;6.60;86.00;;;;;;12557930;28;20032;-73
2023/12/05 12:53:14;;;;;;;97.20;92.25;;;6.60;85.60;;;;;;12557036;28;20444;-73
2023/12/05 12:59:16;;;;;;;147.70;140.85;;;7.10;86.80;;;;;;12557178;28;20036;-73
2023/12/05 13:05:35;;;;;;;74.97;71.35;;;7.50;86.10;;;;;;12557676;28;20033;-73
2023/12/05 13:11:37;;;;;;;47.83;45.07;;;8.10;86.50;;;;;;12556799;28;20040;-72
2023/12/05 13:18:02;;;;;;;19.98;18.17;;;8.60;86.10;;;;;;12556468;28;20029;-73
2023/12/05 13:24:04;;;;;;;15.82;13.98;;;8.80;85.80;;;;;;12556169;28;20051;-73
2023/12/05 13:30:07;;;;;;;11.60;10.38;;;9.00;85.40;;;;;;12555862;28;20044;-72
2023/12/05 13:36:09;;;;;;;12.73;11.10;;;9.10;85.10;;;;;;12555473;28;20431;-73
2023/12/05 13:42:11;;;;;;;18.05;11.95;;;9.10;85.00;;;;;;12555303;28;20025;-72
2023/12/05 13:48:12;;;;;;;31.67;29.25;;;8.50;84.50;;;;;;12555655;28;20037;-72
2023/12/05 13:54:14;;;;;;;56.53;53.38;;;8.20;85.50;;;;;;12554720;28;20039;-72
2023/12/05 14:00:16;;;;;;;67.72;64.20;;;8.00;85.40;;;;;;12554609;28;20055;-72
2023/12/05 14:06:18;;;;;;;57.17;54.35;;;7.70;85.70;;;;;;12554590;28;20033;-73
2023/12/05 14:12:20;;;;;;;111.85;106.65;;;7.60;86.00;;;;;;12554843;28;20033;-72
2023/12/05 14:18:22;;;;;;;133.45;127.10;;;7.60;86.30;;;;;;12553937;28;20033;-72
2023/12/05 14:24:24;;;;;;;146.90;140.45;;;7.60;86.20;;;;;;12553795;28;20028;-72
2023/12/05 14:30:25;;;;;;;188.90;180.60;;;7.50;86.30;;;;;;12553723;28;20032;-72
2023/12/05 14:36:27;;;;;;;151.32;143.82;;;7.50;86.10;;;;;;12552363;28;20029;-72
2023/12/05 14:42:29;;;;;;;135.05;128.52;;;7.20;85.70;;;;;;12552886;28;20423;-72
2023/12/05 14:48:31;;;;;;;99.55;94.75;;;7.20;86.10;;;;;;12552098;28;20037;-72
2023/12/05 14:54:33;;;;;;;73.85;69.75;;;7.30;86.20;;;;;;12559258;22;20045;-72
2023/12/05 15:00:35;;;;;;;90.82;86.07;;;7.30;85.50;;;;;;12552899;28;20443;-72
2023/12/05 15:06:36;;;;;;;120.95;115.05;;;7.10;84.80;;;;;;12535127;28;20037;-72
2023/12/05 15:12:39;;;;;;;109.20;103.45;;;6.90;84.80;;;;;;12535435;28;20491;-72
2023/12/05 15:18:42;;;;;;;136.02;129.27;;;6.80;84.70;;;;;;12553859;28;20045;-72
2023/12/05 15:24:44;;;;;;;88.60;83.43;;;6.70;85.00;;;;;;12561525;28;20462;-72
2023/12/05 15:30:45;;;;;;;74.60;70.45;;;6.70;85.00;;;;;;12561424;28;20029;-72
2023/12/05 15:36:47;;;;;;;83.60;79.25;;;6.70;85.30;;;;;;12561233;28;20462;-72
2023/12/05 15:42:49;;;;;;;97.50;91.95;;;6.70;85.00;;;;;;12561500;28;20040;-72
2023/12/05 15:48:50;;;;;;;89.57;84.57;;;6.60;85.20;;;;;;12543545;28;20045;-72
2023/12/05 15:54:52;;;;;;;73.30;68.80;;;6.60;85.00;;;;;;12543134;28;20029;-72
2023/12/05 16:00:54;;;;;;;90.47;85.35;;;6.50;84.80;;;;;;12560163;28;20029;-72
2023/12/05 16:06:56;;;;;;;71.10;66.97;;;6.50;84.40;;;;;;12560491;28;20033;-72
2023/12/05 16:12:57;;;;;;;86.72;81.95;;;6.50;84.70;;;;;;12525988;28;20037;-72
2023/12/05 16:18:59;;;;;;;114.07;108.50;;;6.60;84.90;;;;;;12484635;28;20017;-72
2023/12/05 16:25:02;;;;;;;81.80;77.10;;;6.60;84.90;;;;;;12525571;28;20044;-72
2023/12/05 16:31:04;;;;;;;86.55;81.05;;;6.70;84.90;;;;;;12539818;28;20036;-71
2023/12/05 16:37:06;;;;;;;86.00;80.95;;;6.70;84.80;;;;;;12558307;28;20036;-72
2023/12/05 16:43:08;;;;;;;91.13;86.43;;;6.70;85.20;;;;;;12558146;28;20029;-72
2023/12/05 16:49:11;;;;;;;91.75;86.85;;;6.80;85.10;;;;;;12557909;28;20033;-72
2023/12/05 16:55:13;;;;;;;116.20;109.93;;;6.80;85.30;;;;;;12557256;28;20352;-72
2023/12/05 17:01:15;;;;;;;122.68;116.65;;;6.80;85.20;;;;;;12557225;28;20032;-72
2023/12/05 17:07:17;;;;;;;116.45;109.88;;;6.80;85.60;;;;;;12539451;28;20049;-72
2023/12/05 17:13:19;;;;;;;98.97;93.28;;;7.00;85.40;;;;;;12558074;28;20029;-72
2023/12/05 17:19:20;;;;;;;120.82;114.47;;;6.90;85.40;;;;;;12556662;28;20021;-72
2023/12/05 17:25:23;;;;;;;116.90;110.65;;;6.90;85.30;;;;;;12556164;28;20037;-72
2023/12/05 17:31:25;;;;;;;116.30;110.00;;;6.80;85.40;;;;;;12555732;28;20032;-72
2023/12/05 17:37:30;;;;;;;133.38;126.40;;;6.80;85.40;;;;;;12555428;28;20033;-72
2023/12/05 17:43:32;;;;;;;124.22;117.82;;;6.80;85.80;;;;;;12555042;28;20025;-72
2023/12/05 17:49:33;;;;;;;133.98;126.93;;;6.90;85.40;;;;;;12537346;28;20037;-72
2023/12/05 17:55:35;;;;;;;100.95;95.55;;;6.70;85.40;;;;;;12537775;28;20029;-72
2023/12/05 18:01:37;;;;;;;116.03;110.13;;;6.70;85.40;;;;;;12537543;28;20052;-72
2023/12/05 18:07:39;;;;;;;100.15;95.25;;;6.70;85.40;;;;;;12555286;28;20262;-72
2023/12/05 18:13:41;;;;;;;94.85;89.97;;;6.60;85.00;;;;;;12554124;28;20443;-72
2023/12/05 18:19:43;;;;;;;76.60;71.85;;;6.60;85.30;;;;;;12535871;28;20352;-72
2023/12/05 18:25:45;;;;;;;94.00;89.22;;;6.60;85.40;;;;;;12553895;28;20364;-72
2023/12/05 18:31:47;;;;;;;94.38;89.88;;;6.60;85.70;;;;;;12554382;28;20366;-72
2023/12/05 18:37:48;;;;;;;86.18;81.75;;;6.70;85.30;;;;;;12535484;28;20041;-72
2023/12/05 18:43:50;;;;;;;82.78;77.95;;;6.60;85.30;;;;;;12535976;28;20482;-72
2023/12/05 18:49:53;;;;;;;84.22;79.97;;;6.60;85.50;;;;;;12553767;28;20041;-72
2023/12/05 18:55:58;;;;;;;117.55;111.30;;;6.70;85.40;;;;;;12558610;28;20343;-72
2023/12/05 19:02:00;;;;;;;100.97;95.95;;;6.60;85.40;;;;;;12562670;28;20036;-72
2023/12/05 19:08:05;;;;;;;94.60;90.10;;;6.60;85.70;;;;;;12562669;28;20033;-72
2023/12/05 19:14:06;;;;;;;92.35;87.63;;;6.70;85.80;;;;;;12562835;28;20033;-72
2023/12/05 19:20:08;;;;;;;125.47;119.57;;;6.80;85.90;;;;;;12561914;28;20024;-72
2023/12/05 19:26:10;;;;;;;139.68;133.48;;;7.10;86.10;;;;;;12561627;28;20040;-72
2023/12/05 19:32:12;;;;;;;147.07;140.23;;;7.30;85.80;;;;;;12563041;28;20510;-72
2023/12/05 19:38:14;;;;;;;158.90;151.55;;;7.20;85.50;;;;;;12561160;28;20029;-72
2023/12/05 19:44:15;;;;;;;152.48;145.57;;;7.00;85.70;;;;;;12560991;28;20040;-72
2023/12/05 19:50:17;;;;;;;137.45;130.50;;;6.90;85.70;;;;;;12543004;28;20051;-72
2023/12/05 19:56:19;;;;;;;108.22;103.53;;;6.80;85.70;;;;;;12558148;28;20029;-72
2023/12/05 20:02:21;;;;;;;105.82;100.60;;;6.70;85.80;;;;;;12557541;28;20033;-72
2023/12/05 20:08:23;;;;;;;112.65;106.93;;;6.80;86.10;;;;;;12556919;28;20032;-72
2023/12/05 20:14:24;;;;;;;91.53;86.65;;;6.90;86.00;;;;;;12556794;28;20041;-72
2023/12/05 20:20:26;;;;;;;94.70;89.80;;;6.80;85.90;;;;;;12538953;28;20048;-72
2023/12/05 20:26:27;;;;;;;159.60;152.27;;;6.90;86.10;;;;;;12556388;28;20041;-72
2023/12/05 20:32:29;;;;;;;108.95;103.45;;;6.90;86.20;;;;;;12556810;28;20440;-72
2023/12/05 20:38:34;;;;;;;131.88;125.40;;;7.10;86.20;;;;;;12538157;28;20033;-72
2023/12/05 20:44:38;;;;;;;122.40;116.30;;;7.00;85.90;;;;;;12537815;28;20036;-72
2023/12/05 20:50:40;;;;;;;115.60;109.87;;;7.00;86.10;;;;;;12488047;28;1936091;-72
2023/12/05 20:56:42;;;;;;;109.28;103.68;;;7.00;86.20;;;;;;12557514;28;20032;-72
2023/12/05 21:02:44;;;;;;;139.32;132.52;;;6.90;86.10;;;;;;12557257;28;20025;-72
2023/12/05 21:08:46;;;;;;;107.85;102.63;;;6.90;86.20;;;;;;12557056;28;20435;-72
2023/12/05 21:14:48;;;;;;;98.18;93.22;;;7.10;86.40;;;;;;12556599;28;20037;-72
2023/12/05 21:20:50;;;;;;;113.25;108.18;;;7.10;86.10;;;;;;12555811;28;20032;-72
2023/12/05 21:26:52;;;;;;;80.70;76.57;;;7.10;86.40;;;;;;12556169;28;20029;-72
2023/12/05 21:32:53;;;;;;;106.70;101.28;;;7.00;85.80;;;;;;12555931;28;20032;-72
2023/12/05 21:38:55;;;;;;;94.97;90.40;;;6.90;86.00;;;;;;12555614;28;20033;-72
2023/12/05 21:44:57;;;;;;;110.18;104.85;;;6.80;86.10;;;;;;12522079;28;20046;-72
2023/12/05 21:50:59;;;;;;;99.68;94.90;;;6.80;86.20;;;;;;12555275;28;20375;-72
2023/12/05 21:57:02;;;;;;;106.97;102.10;;;6.70;86.20;;;;;;12536892;28;20048;-72
2023/12/05 22:03:04;;;;;;;95.93;91.13;;;6.80;86.20;;;;;;12537708;28;20037;-72
2023/12/05 22:09:06;;;;;;;104.30;98.60;;;6.90;86.20;;;;;;12537407;28;20056;-72
2023/12/05 22:15:08;;;;;;;90.80;86.15;;;6.80;86.20;;;;;;12554263;28;20029;-72
2023/12/05 22:21:10;;;;;;;104.47;99.63;;;6.80;86.30;;;;;;12554133;28;20029;-72
2023/12/05 22:27:12;;;;;;;91.57;87.25;;;6.90;86.20;;;;;;12553310;28;20037;-72
2023/12/05 22:33:14;;;;;;;132.52;125.63;;;6.90;86.40;;;;;;12554081;28;20032;-72
2023/12/05 22:39:15;;;;;;;110.38;104.65;;;7.00;86.60;;;;;;12553602;28;20033;-72
2023/12/05 22:45:17;;;;;;;136.40;129.95;;;7.30;86.30;;;;;;12554344;28;20033;-72
2023/12/05 22:51:20;;;;;;;144.88;138.05;;;7.20;86.00;;;;;;12559202;22;20049;-72
2023/12/05 22:57:22;;;;;;;129.73;123.72;;;7.10;86.10;;;;;;12535532;28;20142;-72
2023/12/05 23:03:24;;;;;;;93.30;88.68;;;6.90;85.90;;;;;;12553047;28;20439;-72
2023/12/05 23:09:25;;;;;;;90.88;85.93;;;6.70;86.10;;;;;;12535296;28;20450;-72
2023/12/05 23:15:29;;;;;;;106.40;101.55;;;6.80;86.30;;;;;;12553649;28;20041;-72
2023/12/05 23:21:30;;;;;;;92.88;87.93;;;6.70;86.20;;;;;;12553334;28;20025;-72
2023/12/05 23:27:32;;;;;;;87.18;82.10;;;6.70;86.00;;;;;;12535016;28;20036;-71
2023/12/05 23:33:34;;;;;;;106.88;101.47;;;6.60;86.10;;;;;;12535390;28;20029;-72
2023/12/05 23:39:35;;;;;;;90.60;85.30;;;6.60;86.10;;;;;;12535920;28;20048;-72
2023/12/05 23:45:37;;;;;;;83.10;78.05;;;6.60;86.00;;;;;;12561075;28;20029;-72
2023/12/05 23:51:38;;;;;;;78.95;73.97;;;6.40;85.70;;;;;;12560718;28;20033;-72
2023/12/05 23:57:40;;;;;;;86.03;80.88;;;6.30;85.80;;;;;;12542762;28;20044;-72
